createdAt,value
2018-02-10T00:01:25.257Z,31.92
2018-02-10T00:03:52.802Z,32.10
2018-02-10T00:06:20.356Z,30.30
2018-02-10T00:08:47.892Z,32.15
2018-02-10T00:11:15.438Z,30.30
2018-02-10T00:13:43.735Z,31.95
2018-02-10T00:16:11.291Z,30.90
2018-02-10T00:18:39.572Z,30.50
2018-02-10T00:21:07.115Z,29.85
2018-02-10T00:23:35.437Z,32.42
2018-02-10T00:26:02.993Z,32.03
2018-02-10T00:28:30.535Z,31.73
2018-02-10T00:30:58.085Z,30.17
2018-02-10T00:33:26.401Z,29.75
2018-02-10T00:35:53.943Z,33.10
2018-02-10T00:38:21.497Z,31.55
2018-02-10T00:40:49.016Z,30.83
2018-02-10T00:43:16.576Z,30.80
2018-02-10T00:45:44.101Z,32.15
2018-02-10T00:48:11.654Z,30.27
2018-02-10T00:50:39.314Z,30.35
2018-02-10T00:53:06.875Z,32.75
2018-02-10T00:55:34.402Z,31.40
2018-02-10T00:58:02.720Z,30.90
2018-02-10T01:00:30.258Z,31.83
2018-02-10T01:02:57.814Z,29.52
2018-02-10T01:05:25.348Z,32.33
2018-02-10T01:07:52.912Z,33.90
2018-02-10T01:10:20.433Z,30.67
2018-02-10T01:12:47.979Z,31.85
2018-02-10T01:15:15.496Z,31.65
2018-02-10T01:17:43.919Z,33.83
2018-02-10T01:20:12.219Z,31.62
2018-02-10T01:22:39.770Z,30.15
2018-02-10T01:25:08.085Z,32.50
2018-02-10T01:27:35.624Z,32.50
2018-02-10T01:30:03.222Z,30.65
2018-02-10T01:32:31.521Z,32.00
2018-02-10T01:35:00.942Z,33.72
2018-02-10T01:37:28.477Z,30.48
2018-02-10T01:39:56.027Z,32.05
2018-02-10T01:42:24.322Z,31.70
2018-02-10T01:44:51.867Z,29.52
2018-02-10T01:47:20.176Z,32.17
2018-02-10T01:49:47.728Z,30.92
2018-02-10T01:52:15.269Z,31.60
2018-02-10T01:54:43.636Z,33.55
2018-02-10T01:57:11.935Z,32.25
2018-02-10T01:59:39.528Z,32.42
2018-02-10T02:02:07.046Z,32.75
2018-02-10T02:04:34.616Z,31.62
2018-02-10T02:07:02.160Z,34.80
2018-02-10T02:09:30.516Z,31.40
2018-02-10T02:11:58.075Z,30.70
2018-02-10T02:14:25.608Z,32.80
2018-02-10T02:16:53.171Z,34.35
2018-02-10T02:19:20.695Z,31.10
2018-02-10T02:21:48.266Z,32.97
2018-02-10T02:24:15.835Z,32.10
2018-02-10T02:26:43.387Z,34.80
2018-02-10T02:29:10.906Z,31.73
2018-02-10T02:31:38.453Z,33.38
2018-02-10T02:34:05.989Z,33.20
2018-02-10T02:36:33.536Z,32.88
2018-02-10T02:39:01.072Z,31.25
2018-02-10T02:41:29.398Z,32.50
2018-02-10T02:43:56.923Z,31.30
2018-02-10T02:46:24.477Z,31.27
2018-02-10T02:48:52.040Z,31.45
2018-02-10T02:51:20.368Z,31.83
2018-02-10T02:53:47.903Z,30.20
2018-02-10T02:56:15.444Z,31.45
2018-02-10T02:58:42.981Z,30.58
2018-02-10T03:01:11.311Z,31.10
2018-02-10T03:03:38.860Z,31.23
2018-02-10T03:06:06.396Z,30.83
2018-02-10T03:08:34.679Z,31.73
2018-02-10T03:11:02.250Z,29.17
2018-02-10T03:13:29.787Z,30.95
2018-02-10T03:15:58.100Z,31.55
2018-02-10T03:18:25.635Z,27.60
2018-02-10T03:20:53.202Z,28.85
2018-02-10T03:23:20.750Z,30.75
2018-02-10T03:25:49.060Z,28.38
2018-02-10T03:28:16.579Z,28.08
2018-02-10T03:30:44.915Z,29.50
2018-02-10T03:33:12.455Z,30.10
2018-02-10T03:35:39.981Z,29.45
2018-02-10T03:38:08.306Z,29.37
2018-02-10T03:40:35.840Z,29.20
2018-02-10T03:43:03.403Z,29.25
2018-02-10T03:45:30.956Z,31.10
2018-02-10T03:47:58.508Z,30.83
2018-02-10T03:50:26.806Z,30.83
2018-02-10T03:52:54.352Z,30.98
2018-02-10T03:55:22.659Z,30.10
2018-02-10T03:57:50.215Z,28.90
2018-02-10T04:00:27.976Z,30.17
2018-02-10T04:02:56.320Z,30.05
2018-02-10T04:05:23.843Z,29.60
2018-02-10T04:07:51.392Z,28.50
2018-02-10T04:10:18.945Z,31.40
2018-02-10T04:12:47.268Z,30.37
2018-02-10T04:15:14.805Z,29.95
2018-02-10T04:17:42.343Z,29.87
2018-02-10T04:20:09.885Z,30.73
2018-02-10T04:22:37.469Z,29.75
2018-02-10T04:25:05.758Z,29.52
2018-02-10T04:27:33.315Z,28.42
2018-02-10T04:30:00.852Z,30.73
2018-02-10T04:32:29.170Z,29.12
2018-02-10T04:34:56.709Z,29.05
2018-02-10T04:37:25.043Z,32.05
2018-02-10T04:39:52.607Z,30.52
2018-02-10T04:42:20.161Z,32.40
2018-02-10T04:44:47.678Z,30.35
2018-02-10T04:47:15.228Z,30.45
2018-02-10T04:49:43.528Z,30.75
2018-02-10T04:52:11.078Z,28.70
2018-02-10T04:54:38.625Z,30.10
2018-02-10T04:57:06.935Z,30.15
2018-02-10T04:59:34.477Z,29.67
2018-02-10T05:02:02.064Z,32.42
2018-02-10T05:04:29.595Z,30.35
2018-02-10T05:06:57.172Z,30.37
2018-02-10T05:09:24.700Z,31.65
2018-02-10T05:11:53.024Z,30.95
2018-02-10T05:14:20.557Z,30.83
2018-02-10T05:16:48.128Z,31.98
2018-02-10T05:19:15.675Z,30.92
2018-02-10T05:21:43.228Z,30.40
2018-02-10T05:24:11.543Z,31.17
2018-02-10T05:26:39.089Z,30.42
2018-02-10T05:29:06.634Z,31.92
2018-02-10T05:31:34.199Z,32.15
2018-02-10T05:34:01.731Z,31.77
2018-02-10T05:36:29.263Z,31.60
2018-02-10T05:38:56.860Z,29.90
2018-02-10T05:41:25.165Z,29.55
2018-02-10T05:43:52.726Z,31.08
2018-02-10T05:46:41.730Z,32.15
2018-02-10T05:49:09.289Z,30.08
2018-02-10T05:51:36.826Z,30.37
2018-02-10T05:54:04.389Z,29.52
2018-02-10T05:56:31.927Z,31.05
2018-02-10T05:58:59.552Z,31.20
2018-02-10T06:01:27.081Z,30.55
2018-02-10T06:03:55.400Z,30.55
2018-02-10T06:06:23.713Z,29.00
2018-02-10T06:08:51.245Z,30.40
2018-02-10T06:11:19.554Z,29.45
2018-02-10T06:13:47.177Z,29.10
2018-02-10T06:16:14.715Z,31.10
2018-02-10T06:18:42.275Z,30.62
2018-02-10T06:21:09.796Z,30.55
2018-02-10T06:23:37.353Z,30.90
2018-02-10T06:26:04.875Z,31.33
2018-02-10T06:28:32.418Z,30.45
2018-02-10T06:30:59.954Z,31.37
2018-02-10T06:33:27.521Z,30.92
2018-02-10T06:35:55.886Z,32.17
2018-02-10T06:38:23.487Z,29.48
2018-02-10T06:40:50.995Z,28.90
2018-02-10T06:43:18.542Z,31.00
2018-02-10T06:45:46.089Z,30.30
2018-02-10T06:48:13.635Z,28.98
2018-02-10T06:50:41.176Z,31.40
2018-02-10T06:53:08.725Z,29.70
2018-02-10T06:55:36.269Z,31.87
2018-02-10T06:58:05.600Z,31.02
2018-02-10T07:00:33.223Z,30.15
2018-02-10T07:03:00.797Z,30.30
2018-02-10T07:05:38.652Z,32.20
2018-02-10T07:08:06.189Z,29.75
2018-02-10T07:10:33.720Z,28.87
2018-02-10T07:13:01.308Z,30.67
2018-02-10T07:15:28.925Z,29.30
2018-02-10T07:17:56.460Z,30.67
2018-02-10T07:20:24.777Z,30.50
2018-02-10T07:22:52.316Z,31.23
2018-02-10T07:25:19.876Z,30.10
2018-02-10T07:27:47.407Z,27.30
2018-02-10T07:30:15.012Z,29.25
2018-02-10T07:32:42.547Z,29.52
2018-02-10T07:35:11.908Z,31.35
2018-02-10T07:37:39.427Z,30.23
2018-02-10T07:40:06.981Z,29.35
2018-02-10T07:42:34.513Z,30.92
2018-02-10T07:45:02.075Z,29.73
2018-02-10T07:47:32.888Z,29.45
2018-02-10T07:50:00.424Z,28.75
2018-02-10T07:52:27.965Z,29.60
2018-02-10T07:54:55.669Z,30.45
2018-02-10T07:57:23.218Z,29.87
2018-02-10T07:59:50.786Z,29.27
2018-02-10T08:02:18.328Z,31.17
2018-02-10T08:04:45.877Z,28.48
2018-02-10T08:07:13.395Z,28.12
2018-02-10T08:09:40.997Z,30.08
2018-02-10T08:12:08.542Z,28.48
2018-02-10T08:14:36.174Z,27.92
2018-02-10T08:17:03.732Z,28.33
2018-02-10T08:19:31.345Z,26.55
2018-02-10T08:21:58.893Z,27.37
2018-02-10T08:24:27.201Z,26.65
2018-02-10T08:26:54.758Z,30.17
2018-02-10T08:29:22.296Z,28.35
2018-02-10T08:31:49.908Z,27.13
2018-02-10T08:34:17.641Z,28.85
2018-02-10T08:36:45.408Z,26.37
2018-02-10T08:39:13.079Z,26.10
2018-02-10T08:41:45.659Z,28.42
2018-02-10T08:44:13.248Z,28.25
2018-02-10T08:46:40.824Z,27.40
2018-02-10T08:49:08.370Z,28.48
2018-02-10T08:51:36.923Z,26.33
2018-02-10T08:54:06.407Z,25.55
2018-02-10T08:56:33.957Z,27.35
2018-02-10T08:59:02.303Z,26.60
2018-02-10T09:01:31.760Z,25.17
2018-02-10T09:04:00.051Z,26.62
2018-02-10T09:06:27.643Z,24.20
2018-02-10T09:08:55.163Z,25.20
2018-02-10T09:11:22.688Z,25.25
2018-02-10T09:13:51.000Z,25.77
2018-02-10T09:16:18.528Z,23.92
2018-02-10T09:18:46.848Z,26.52
2018-02-10T09:21:14.385Z,26.05
2018-02-10T09:23:42.696Z,28.23
2018-02-10T09:26:10.250Z,25.67
2018-02-10T09:28:37.795Z,25.20
2018-02-10T09:31:05.341Z,25.12
2018-02-10T09:33:33.904Z,24.63
2018-02-10T09:36:01.469Z,25.40
2018-02-10T09:38:32.446Z,23.23
2018-02-10T09:41:00.024Z,23.48
2018-02-10T09:43:28.613Z,25.35
2018-02-10T09:45:56.135Z,22.08
2018-02-10T09:48:28.146Z,22.87
2018-02-10T09:50:55.668Z,22.67
2018-02-10T09:53:27.829Z,24.02
2018-02-10T09:55:58.885Z,24.33
2018-02-10T09:58:26.430Z,23.77
2018-02-10T10:00:54.737Z,24.30
2018-02-10T10:03:22.304Z,24.87
2018-02-10T10:05:49.828Z,23.05
2018-02-10T10:08:33.020Z,24.50
2018-02-10T10:11:00.554Z,20.62
2018-02-10T10:13:28.147Z,23.40
2018-02-10T10:15:56.676Z,22.92
2018-02-10T10:18:24.207Z,22.55
2018-02-10T10:20:51.756Z,23.12
2018-02-10T10:23:19.283Z,23.17
2018-02-10T10:25:46.835Z,22.90
2018-02-10T10:28:14.358Z,23.00
2018-02-10T10:30:41.917Z,22.05
2018-02-10T10:33:10.208Z,22.58
2018-02-10T10:35:37.739Z,23.23
2018-02-10T10:38:06.089Z,23.38
2018-02-10T10:40:33.639Z,21.95
2018-02-10T10:43:01.164Z,22.92
2018-02-10T10:45:32.594Z,22.23
2018-02-10T10:48:00.123Z,24.25
2018-02-10T10:50:27.678Z,21.83
2018-02-10T10:52:55.203Z,22.70
2018-02-10T10:55:22.775Z,24.60
2018-02-10T10:57:50.312Z,22.95
2018-02-10T11:00:18.753Z,22.73
2018-02-10T11:02:46.284Z,20.88
2018-02-10T11:05:13.840Z,22.80
2018-02-10T11:07:41.395Z,21.85
2018-02-10T11:10:08.924Z,21.10
2018-02-10T11:12:36.471Z,23.00
2018-02-10T11:15:04.004Z,22.00
2018-02-10T11:17:31.550Z,24.65
2018-02-10T11:19:59.076Z,22.02
2018-02-10T11:22:27.400Z,23.55
2018-02-10T11:24:54.936Z,22.58
2018-02-10T11:27:22.480Z,21.70
2018-02-10T11:29:50.772Z,24.67
2018-02-10T11:32:18.325Z,22.50
2018-02-10T11:34:45.868Z,22.75
2018-02-10T11:37:14.187Z,22.67
2018-02-10T11:39:41.712Z,20.67
2018-02-10T11:42:10.036Z,22.42
2018-02-10T11:44:37.572Z,22.37
2018-02-10T11:47:05.128Z,22.23
2018-02-10T11:49:32.653Z,21.10
2018-02-10T11:52:00.193Z,17.95
2018-02-10T11:54:27.718Z,20.95
2018-02-10T11:56:55.266Z,19.40
2018-02-10T11:59:22.824Z,20.10
2018-02-10T12:01:50.382Z,19.90
2018-02-10T12:04:17.924Z,21.40
2018-02-10T12:06:46.253Z,20.05
2018-02-10T12:09:13.784Z,20.65
2018-02-10T12:11:54.046Z,19.75
2018-02-10T12:14:21.616Z,20.42
2018-02-10T12:16:49.160Z,21.40
2018-02-10T12:19:17.448Z,21.87
2018-02-10T12:21:45.008Z,21.67
2018-02-10T12:24:12.541Z,22.25
2018-02-10T12:26:40.084Z,22.50
2018-02-10T12:29:07.604Z,23.77
2018-02-10T12:31:35.172Z,21.42
2018-02-10T12:34:02.714Z,21.45
2018-02-10T12:36:30.275Z,22.30
2018-02-10T12:38:57.799Z,22.65
2018-02-10T12:41:25.356Z,21.77
2018-02-10T12:43:52.892Z,22.50
2018-02-10T12:46:20.441Z,23.00
2018-02-10T12:48:53.779Z,23.10
2018-02-10T12:51:21.300Z,23.35
2018-02-10T12:53:48.845Z,21.37
2018-02-10T12:56:16.394Z,23.08
2018-02-10T12:58:43.945Z,21.77
2018-02-10T13:01:12.235Z,21.87
2018-02-10T13:03:39.793Z,21.77
2018-02-10T13:06:07.347Z,20.98
2018-02-10T13:08:34.920Z,21.27
2018-02-10T13:11:02.442Z,23.50
2018-02-10T13:13:30.762Z,23.35
2018-02-10T13:15:58.299Z,21.35
2018-02-10T13:18:26.631Z,21.00
2018-02-10T13:20:54.176Z,22.00
2018-02-10T13:23:21.720Z,21.58
2018-02-10T13:25:49.263Z,23.85
2018-02-10T13:28:16.842Z,22.33
2018-02-10T13:30:44.377Z,22.77
2018-02-10T13:33:12.695Z,22.02
2018-02-10T13:35:40.233Z,23.08
2018-02-10T13:38:07.782Z,23.17
2018-02-10T13:40:36.084Z,21.90
2018-02-10T13:43:03.623Z,23.87
2018-02-10T13:45:31.150Z,22.55
2018-02-10T13:47:58.683Z,22.55
2018-02-10T13:50:26.221Z,22.10
2018-02-10T13:52:53.760Z,22.17
2018-02-10T13:55:22.052Z,22.52
2018-02-10T13:57:49.596Z,21.35
2018-02-10T14:00:17.973Z,22.35
2018-02-10T14:02:46.288Z,22.30
2018-02-10T14:05:13.808Z,21.75
2018-02-10T14:07:41.352Z,21.02
2018-02-10T14:10:08.900Z,20.52
2018-02-10T14:12:36.443Z,18.70
2018-02-10T14:15:03.989Z,21.37
2018-02-10T14:17:31.533Z,21.23
2018-02-10T14:19:59.062Z,22.35
2018-02-10T14:22:27.385Z,19.05
2018-02-10T14:24:54.907Z,20.58
2018-02-10T14:27:23.200Z,19.73
2018-02-10T14:29:51.528Z,20.48
2018-02-10T14:32:19.068Z,18.87
2018-02-10T14:34:46.617Z,20.40
2018-02-10T14:37:14.148Z,20.60
2018-02-10T14:39:42.465Z,21.27
2018-02-10T14:42:10.018Z,21.30
2018-02-10T14:44:37.578Z,20.30
2018-02-10T14:47:05.118Z,21.25
2018-02-10T14:49:32.670Z,20.25
2018-02-10T14:52:00.964Z,19.35
2018-02-10T14:54:28.526Z,19.90
2018-02-10T14:56:56.080Z,19.12
2018-02-10T14:59:23.649Z,20.60
2018-02-10T15:01:51.184Z,19.70
2018-02-10T15:04:19.487Z,20.48
2018-02-10T15:06:47.009Z,20.83
2018-02-10T15:09:14.568Z,21.30
2018-02-10T15:11:42.109Z,21.02
2018-02-10T15:14:09.656Z,19.65
2018-02-10T15:16:37.177Z,20.70
2018-02-10T15:19:05.509Z,21.27
2018-02-10T15:21:33.036Z,19.20
2018-02-10T15:24:00.603Z,21.45
2018-02-10T15:26:28.898Z,21.48
2018-02-10T15:28:56.664Z,21.23
2018-02-10T15:31:26.024Z,20.77
2018-02-10T15:34:06.251Z,20.02
2018-02-10T15:36:33.784Z,20.55
2018-02-10T15:39:01.332Z,21.83
2018-02-10T15:41:28.859Z,23.55
2018-02-10T15:43:57.260Z,22.85
2018-02-10T15:46:24.789Z,22.90
2018-02-10T15:48:53.102Z,21.62
2018-02-10T15:51:20.639Z,22.48
2018-02-10T15:53:48.955Z,22.35
2018-02-10T15:56:16.488Z,23.83
2018-02-10T15:58:44.029Z,22.42
2018-02-10T16:01:12.345Z,23.23
2018-02-10T16:03:39.893Z,23.17
2018-02-10T16:06:07.475Z,26.48
2018-02-10T16:08:35.032Z,23.75
2018-02-10T16:11:02.576Z,26.02
2018-02-10T16:13:30.124Z,25.12
2018-02-10T16:15:58.545Z,26.12
2018-02-10T16:18:26.066Z,27.95
2018-02-10T16:20:54.403Z,28.80
2018-02-10T16:23:21.932Z,86.55
2018-02-10T16:25:49.475Z,60.30
2018-02-10T16:28:17.960Z,51.60
2018-02-10T16:30:45.517Z,41.00
2018-02-10T16:33:13.056Z,34.58
2018-02-10T16:35:40.600Z,31.05
2018-02-10T16:38:08.139Z,30.52
2018-02-10T16:40:35.865Z,29.55
2018-02-10T16:43:03.432Z,29.60
2018-02-10T16:45:31.752Z,28.10
2018-02-10T16:47:59.274Z,28.67
2018-02-10T16:50:26.830Z,25.77
2018-02-10T16:52:54.355Z,26.40
2018-02-10T16:55:22.682Z,26.73
2018-02-10T16:57:50.205Z,27.40
2018-02-10T17:00:18.513Z,27.40
2018-02-10T17:02:46.036Z,27.70
2018-02-10T17:05:14.339Z,27.42
2018-02-10T17:07:41.876Z,28.60
2018-02-10T17:10:10.194Z,28.40
2018-02-10T17:12:37.733Z,27.33
2018-02-10T17:15:05.303Z,28.30
2018-02-10T17:17:32.845Z,26.85
2018-02-10T17:20:01.169Z,28.30
2018-02-10T17:22:28.718Z,26.98
2018-02-10T17:24:56.265Z,26.98
2018-02-10T17:27:23.787Z,27.20
2018-02-10T17:29:51.328Z,27.37
2018-02-10T17:32:19.057Z,26.00
2018-02-10T17:34:46.627Z,27.87
2018-02-10T17:37:14.171Z,28.00
2018-02-10T17:39:41.688Z,26.17
2018-02-10T17:42:09.240Z,28.05
2018-02-10T17:44:36.759Z,27.45
2018-02-10T17:47:04.304Z,28.50
2018-02-10T17:49:31.825Z,27.33
2018-02-10T17:51:59.368Z,27.00
2018-02-10T17:54:26.904Z,26.98
2018-02-10T17:56:54.450Z,27.73
2018-02-10T17:59:22.006Z,27.80
2018-02-10T18:01:49.565Z,27.58
2018-02-10T18:04:17.112Z,28.85
2018-02-10T18:06:45.435Z,28.40
2018-02-10T18:09:12.954Z,29.67
2018-02-10T18:11:40.528Z,28.65
2018-02-10T18:14:08.045Z,28.80
2018-02-10T18:16:35.567Z,28.90
2018-02-10T18:19:03.125Z,27.92
2018-02-10T18:21:30.736Z,28.12
2018-02-10T18:23:58.285Z,30.58
2018-02-10T18:26:25.814Z,29.12
2018-02-10T18:28:54.175Z,28.40
2018-02-10T18:31:21.713Z,27.55
2018-02-10T18:33:50.034Z,28.65
2018-02-10T18:36:17.604Z,30.00
2018-02-10T18:38:45.153Z,30.17
2018-02-10T18:41:12.689Z,29.42
2018-02-10T18:43:40.258Z,29.75
2018-02-10T18:46:07.854Z,28.80
2018-02-10T18:48:35.391Z,29.35
2018-02-10T18:51:02.937Z,28.77
2018-02-10T18:53:30.491Z,29.30
2018-02-10T18:55:58.117Z,27.70
2018-02-10T18:58:25.661Z,28.95
2018-02-10T19:00:53.180Z,26.45
2018-02-10T19:03:20.806Z,26.65
2018-02-10T19:05:48.323Z,26.42
2018-02-10T19:08:16.627Z,26.73
2018-02-10T19:10:44.209Z,25.40
2018-02-10T19:13:12.530Z,26.00
2018-02-10T19:15:43.688Z,25.55
2018-02-10T19:18:11.241Z,24.60
2018-02-10T19:20:39.722Z,24.48
2018-02-10T19:23:07.279Z,25.55
2018-02-10T19:25:34.845Z,26.73
2018-02-10T19:28:02.430Z,24.85
2018-02-10T19:30:30.302Z,21.83
2018-02-10T19:32:58.843Z,22.27
2018-02-10T19:35:26.403Z,22.00
2018-02-10T19:37:53.931Z,21.08
2018-02-10T19:40:21.490Z,19.15
2018-02-10T19:42:49.816Z,17.65
2018-02-10T19:45:17.431Z,18.52
2018-02-10T19:47:44.989Z,16.70
2018-02-10T19:50:13.328Z,16.27
2018-02-10T19:52:40.928Z,16.90
2018-02-10T19:55:08.473Z,16.45
2018-02-10T19:57:35.991Z,15.60
2018-02-10T20:00:03.583Z,16.45
2018-02-10T20:02:31.104Z,14.60
2018-02-10T20:04:58.661Z,14.02
2018-02-10T20:07:26.188Z,15.40
2018-02-10T20:09:53.717Z,15.02
2018-02-10T20:12:21.291Z,14.60
2018-02-10T20:14:48.818Z,16.02
2018-02-10T20:17:16.826Z,14.85
2018-02-10T20:19:45.180Z,14.90
2018-02-10T20:22:12.721Z,15.07
2018-02-10T20:24:40.256Z,14.55
2018-02-10T20:27:08.738Z,15.75
2018-02-10T20:29:36.296Z,14.35
2018-02-10T20:32:04.609Z,16.08
2018-02-10T20:34:32.131Z,14.50
2018-02-10T20:36:59.733Z,13.80
2018-02-10T20:39:27.701Z,14.13
2018-02-10T20:41:55.311Z,14.68
2018-02-10T20:44:22.884Z,14.27
2018-02-10T20:46:51.224Z,15.23
2018-02-10T20:49:18.852Z,14.50
2018-02-10T20:51:46.442Z,14.02
2018-02-10T20:54:14.072Z,13.77
2018-02-10T20:56:41.655Z,13.98
2018-02-10T20:59:09.184Z,14.65
2018-02-10T21:01:37.499Z,13.88
2018-02-10T21:04:05.151Z,13.75
2018-02-10T21:06:32.688Z,14.90
2018-02-10T21:09:00.994Z,13.50
2018-02-10T21:11:28.674Z,13.62
2018-02-10T21:13:56.272Z,13.52
2018-02-10T21:16:24.073Z,14.40
2018-02-10T21:18:51.625Z,12.52
2018-02-10T21:21:19.956Z,13.02
2018-02-10T21:23:47.755Z,13.20
2018-02-10T21:26:15.368Z,14.10
2018-02-10T21:28:42.894Z,13.60
2018-02-10T21:31:10.569Z,12.55
2018-02-10T21:33:38.507Z,13.15
2018-02-10T21:36:06.169Z,12.80
2018-02-10T21:38:33.699Z,13.48
2018-02-10T21:41:01.251Z,14.07
2018-02-10T21:43:28.772Z,13.98
2018-02-10T21:45:57.083Z,12.37
2018-02-10T21:48:24.916Z,13.38
2018-02-10T21:50:52.463Z,12.90
2018-02-10T21:53:20.752Z,11.93
2018-02-10T21:55:49.066Z,13.30
2018-02-10T21:58:16.598Z,14.07
2018-02-10T22:00:46.324Z,14.23
2018-02-10T22:03:13.944Z,12.52
2018-02-10T22:05:41.509Z,13.40
2018-02-10T22:08:09.804Z,13.35
2018-02-10T22:10:38.179Z,13.25
2018-02-10T22:13:05.988Z,13.07
2018-02-10T22:15:34.518Z,12.07
2018-02-10T22:18:02.841Z,14.00
2018-02-10T22:20:30.360Z,13.75
2018-02-10T22:22:58.777Z,13.55
2018-02-10T22:25:27.065Z,14.20
2018-02-10T22:27:54.665Z,13.50
2018-02-10T22:30:22.983Z,13.05
2018-02-10T22:32:50.527Z,13.50
2018-02-10T22:35:18.836Z,14.60
2018-02-10T22:37:46.379Z,15.70
2018-02-10T22:40:13.915Z,14.90
2018-02-10T22:42:41.459Z,14.57
2018-02-10T22:45:10.061Z,13.60
2018-02-10T22:47:38.378Z,14.30
2018-02-10T22:50:05.911Z,14.68
2018-02-10T22:52:34.236Z,15.00
2018-02-10T22:55:01.798Z,13.10
2018-02-10T22:57:29.343Z,12.60
2018-02-10T22:59:56.871Z,12.77
2018-02-10T23:02:25.207Z,14.38
2018-02-10T23:04:52.732Z,12.68
2018-02-10T23:07:20.279Z,12.90
2018-02-10T23:09:47.813Z,13.07
2018-02-10T23:12:15.369Z,12.48
2018-02-10T23:14:42.892Z,12.15
2018-02-10T23:17:10.437Z,12.32
2018-02-10T23:19:37.965Z,11.18
2018-02-10T23:22:06.304Z,12.05
2018-02-10T23:24:33.834Z,10.68
2018-02-10T23:27:01.376Z,11.25
2018-02-10T23:29:29.669Z,10.82
2018-02-10T23:31:57.223Z,10.40
2018-02-10T23:34:24.748Z,10.73
2018-02-10T23:36:52.300Z,10.38
2018-02-10T23:39:19.823Z,10.50
2018-02-10T23:41:47.380Z,10.43
2018-02-10T23:44:14.913Z,11.05
2018-02-10T23:46:42.481Z,10.32
2018-02-10T23:49:10.013Z,9.35
2018-02-10T23:51:38.344Z,10.20
2018-02-10T23:54:05.866Z,9.90
2018-02-10T23:56:34.187Z,10.07
2018-02-10T23:59:01.708Z,9.95
